Gabo Island, Australia
Current Conditions -  °F | °C
As of 2:00 AM on Sunday 26 Oct 2014 (Local Time) from YMER Reporting Station
Overcast Overcast  
Wind Chill: 61°   Ceiling: 300
Heat Index: 61°   Visibility: 0.93mi
Dew Point: 59°   Wind: 0mph
Humidity: 94%   Direction: NA
Pressure: 29.91"   Gusts: NA
Location:  37.56°S, 149.91°E
Report Text: YMER 251500Z AUTO 00000KT 1500 // OVC003 OVC006 16/15 Q1013
Loading
Personal Weather Stations






























Interactive Weather Map
Tropical Storm Tracking
New forecast layout! Learn more

10-Day Weather Forecast

Advertisements
Track Severe Weather on mobile